createdAt,value
2022-10-01T00:00:57.312Z,7.90
2022-10-01T00:03:36.818Z,7.80
2022-10-01T00:06:13.173Z,8.40
2022-10-01T00:08:41.936Z,8.80
2022-10-01T00:11:11.448Z,8.20
2022-10-01T00:13:38.677Z,8.20
2022-10-01T00:16:11.247Z,8.80
2022-10-01T00:18:40.237Z,8.90
2022-10-01T00:21:11.710Z,8.80
2022-10-01T00:23:38.758Z,8.30
2022-10-01T00:26:14.932Z,8.90
2022-10-01T00:28:42.438Z,9.10
2022-10-01T00:31:09.845Z,8.70
2022-10-01T00:33:38.024Z,8.50
2022-10-01T00:36:06.761Z,9.20
2022-10-01T00:38:34.195Z,9.40
2022-10-01T00:41:01.213Z,9.60
2022-10-01T00:43:33.815Z,9.30
2022-10-01T00:46:09.072Z,9.10
2022-10-01T00:48:48.087Z,9.80
2022-10-01T00:51:15.156Z,9.90
2022-10-01T00:53:44.357Z,9.50
2022-10-01T00:56:11.047Z,9.30
2022-10-01T00:58:38.875Z,9.70
2022-10-01T01:01:05.663Z,9.50
2022-10-01T01:03:32.313Z,10.10
2022-10-01T01:05:58.991Z,8.80
2022-10-01T01:08:25.888Z,9.80
2022-10-01T01:11:04.964Z,9.80
2022-10-01T01:13:54.121Z,9.50
2022-10-01T01:16:25.675Z,10.30
2022-10-01T01:19:08.502Z,9.80
2022-10-01T01:21:42.672Z,10.30
2022-10-01T01:24:21.453Z,10.90
2022-10-01T01:27:26.510Z,10.70
2022-10-01T01:30:14.820Z,10.70
2022-10-01T01:33:08.841Z,11.10
2022-10-01T01:35:45.188Z,10.30
2022-10-01T01:38:17.081Z,10.70
2022-10-01T01:40:45.693Z,10.80
2022-10-01T01:43:19.961Z,10.40
2022-10-01T01:45:50.911Z,11.40
2022-10-01T01:48:17.670Z,10.90
2022-10-01T01:50:52.350Z,12.50
2022-10-01T01:53:19.677Z,11.30
2022-10-01T01:55:48.745Z,11.00
2022-10-01T01:58:19.533Z,11.10
2022-10-01T02:00:51.816Z,10.90
2022-10-01T02:03:21.705Z,11.20
2022-10-01T02:08:54.640Z,11.20
2022-10-01T02:11:28.217Z,11.80
2022-10-01T02:14:09.248Z,10.90
2022-10-01T02:16:56.323Z,10.90
2022-10-01T02:19:30.942Z,11.50
2022-10-01T02:22:07.411Z,11.80
2022-10-01T02:25:08.791Z,11.80
2022-10-01T02:27:40.110Z,11.00
2022-10-01T02:30:09.259Z,10.40
2022-10-01T02:32:38.767Z,11.00
2022-10-01T02:35:10.109Z,10.80
2022-10-01T02:37:39.740Z,10.10
2022-10-01T02:40:14.159Z,10.80
2022-10-01T02:42:48.520Z,11.80
2022-10-01T02:45:23.590Z,12.60
2022-10-01T02:48:05.582Z,11.30
2022-10-01T02:50:56.834Z,11.40
2022-10-01T02:53:39.509Z,11.30
2022-10-01T02:56:07.721Z,11.20
2022-10-01T02:58:35.783Z,11.10
2022-10-01T03:01:03.130Z,11.50
2022-10-01T03:03:30.530Z,11.30
2022-10-01T03:05:57.272Z,11.60
2022-10-01T03:08:23.896Z,11.50
2022-10-01T03:10:50.616Z,12.00
2022-10-01T03:13:19.169Z,11.80
2022-10-01T03:15:46.542Z,11.10
2022-10-01T03:18:13.245Z,11.20
2022-10-01T03:20:40.028Z,12.70
2022-10-01T03:23:06.675Z,11.30
2022-10-01T03:25:33.820Z,12.40
2022-10-01T03:28:00.728Z,11.60
2022-10-01T03:30:27.860Z,12.70
2022-10-01T03:32:54.945Z,12.40
2022-10-01T03:35:22.313Z,12.10
2022-10-01T03:37:49.064Z,12.80
2022-10-01T03:40:15.838Z,12.00
2022-10-01T03:42:42.546Z,12.50
2022-10-01T03:45:09.586Z,12.50
2022-10-01T03:47:36.473Z,13.40
2022-10-01T03:50:03.559Z,12.50
2022-10-01T03:52:30.249Z,12.30
2022-10-01T03:54:56.901Z,12.70
2022-10-01T03:57:23.590Z,12.50
2022-10-01T03:59:50.275Z,12.40
2022-10-01T04:02:17.033Z,13.00
2022-10-01T04:04:43.839Z,12.50
2022-10-01T04:07:10.494Z,12.70
2022-10-01T04:09:37.587Z,13.50
2022-10-01T04:12:04.485Z,13.40
2022-10-01T04:14:31.180Z,13.90
2022-10-01T04:16:58.476Z,13.20
2022-10-01T04:19:25.369Z,12.90
2022-10-01T04:21:52.114Z,13.80
2022-10-01T04:24:18.814Z,13.50
2022-10-01T04:26:45.692Z,14.50
2022-10-01T04:29:12.622Z,14.20
2022-10-01T04:31:39.738Z,13.50
2022-10-01T04:34:06.716Z,14.20
2022-10-01T04:36:33.875Z,13.50
2022-10-01T04:39:02.604Z,14.00
2022-10-01T04:41:31.422Z,13.80
2022-10-01T04:43:59.155Z,14.10
2022-10-01T04:46:26.376Z,14.50
2022-10-01T04:48:53.183Z,14.70
2022-10-01T04:51:19.970Z,15.10
2022-10-01T04:53:46.727Z,14.70
2022-10-01T04:56:13.476Z,14.80
2022-10-01T04:58:40.724Z,14.50
2022-10-01T05:01:07.445Z,15.60
2022-10-01T05:03:34.352Z,15.00
2022-10-01T05:06:01.346Z,14.80
2022-10-01T05:08:29.529Z,15.10
2022-10-01T05:10:58.797Z,14.20
2022-10-01T05:13:30.238Z,14.00
2022-10-01T05:15:58.008Z,15.30
2022-10-01T05:18:24.814Z,14.70
2022-10-01T05:20:51.647Z,14.90
2022-10-01T05:23:18.354Z,14.80
2022-10-01T05:25:46.297Z,15.10
2022-10-01T05:28:16.056Z,14.10
2022-10-01T05:30:46.585Z,14.60
2022-10-01T05:33:13.363Z,15.10
2022-10-01T05:35:40.793Z,16.30
2022-10-01T05:38:07.668Z,15.50
2022-10-01T05:40:34.435Z,15.10
2022-10-01T05:43:03.785Z,16.40
2022-10-01T05:45:31.796Z,15.60
2022-10-01T05:48:01.063Z,16.70
2022-10-01T05:50:33.266Z,17.20
2022-10-01T05:53:01.455Z,17.00
2022-10-01T05:55:33.954Z,16.50
2022-10-01T05:58:03.780Z,16.40
2022-10-01T06:00:31.642Z,16.10
2022-10-01T06:03:00.541Z,15.50
2022-10-01T06:05:28.804Z,15.70
2022-10-01T06:07:56.048Z,15.60
2022-10-01T06:10:24.142Z,16.20
2022-10-01T06:12:51.359Z,17.00
2022-10-01T06:15:18.434Z,16.50
2022-10-01T06:17:45.166Z,18.90
2022-10-01T06:20:16.761Z,17.20
2022-10-01T06:22:44.155Z,16.60
2022-10-01T06:25:12.044Z,16.00
2022-10-01T06:27:39.067Z,15.80
2022-10-01T06:30:06.654Z,16.30
2022-10-01T06:32:35.047Z,15.50
2022-10-01T06:35:03.740Z,16.00
2022-10-01T06:37:30.610Z,15.70
2022-10-01T06:39:57.325Z,15.00
2022-10-01T06:42:24.319Z,16.20
2022-10-01T06:44:51.057Z,15.90
2022-10-01T06:47:17.861Z,15.20
2022-10-01T06:49:47.696Z,14.60
2022-10-01T06:52:33.242Z,16.50
2022-10-01T06:55:00.913Z,14.50
2022-10-01T06:57:28.537Z,14.90
2022-10-01T06:59:55.424Z,14.40
2022-10-01T07:02:29.643Z,15.80
2022-10-01T07:04:59.532Z,14.80
2022-10-01T07:10:00.080Z,13.10
2022-10-01T07:12:27.006Z,13.10
2022-10-01T07:14:54.177Z,12.80
2022-10-01T07:17:21.959Z,12.40
2022-10-01T07:19:48.792Z,13.00
2022-10-01T07:22:17.417Z,11.60
2022-10-01T07:24:44.597Z,11.80
2022-10-01T07:27:12.559Z,16.10
2022-10-01T07:29:39.838Z,15.30
2022-10-01T07:32:08.313Z,13.40
2022-10-01T07:34:37.663Z,12.10
2022-10-01T07:37:04.738Z,12.00
2022-10-01T07:39:31.881Z,12.40
2022-10-01T07:41:58.655Z,13.30
2022-10-01T07:44:28.918Z,12.50
2022-10-01T07:46:56.405Z,12.40
2022-10-01T07:49:24.682Z,12.50
2022-10-01T07:51:53.907Z,13.20
2022-10-01T07:54:21.915Z,12.20
2022-10-01T07:56:52.206Z,11.40
2022-10-01T07:59:19.278Z,11.30
2022-10-01T08:01:51.345Z,12.00
2022-10-01T08:04:38.117Z,11.20
2022-10-01T08:07:06.943Z,12.20
2022-10-01T08:09:34.326Z,11.60
2022-10-01T08:12:02.387Z,11.10
2022-10-01T08:14:29.869Z,11.40
2022-10-01T08:16:57.067Z,11.10
2022-10-01T08:19:24.162Z,11.80
2022-10-01T08:21:50.933Z,10.00
2022-10-01T08:24:17.776Z,10.80
2022-10-01T08:26:45.540Z,10.80
2022-10-01T08:29:16.307Z,10.20
2022-10-01T08:31:43.789Z,10.50
2022-10-01T08:34:10.524Z,10.20
2022-10-01T08:36:37.458Z,10.10
2022-10-01T08:39:04.195Z,10.10
2022-10-01T08:41:30.991Z,9.40
2022-10-01T08:44:01.090Z,9.00
2022-10-01T08:46:32.231Z,9.00
2022-10-01T08:49:20.157Z,9.40
2022-10-01T08:51:54.118Z,8.80
2022-10-01T08:54:39.008Z,8.50
2022-10-01T08:57:12.557Z,8.40
2022-10-01T08:59:50.421Z,7.80
2022-10-01T09:02:25.009Z,8.10
2022-10-01T09:05:02.008Z,7.60
2022-10-01T09:07:53.455Z,7.50
2022-10-01T09:10:47.038Z,6.80
2022-10-01T09:13:39.783Z,7.30
2022-10-01T09:16:19.536Z,6.80
2022-10-01T09:19:10.959Z,6.20
2022-10-01T09:22:01.632Z,6.70
2022-10-01T09:24:42.080Z,6.50
2022-10-01T09:27:15.744Z,6.60
2022-10-01T09:29:53.053Z,6.20
2022-10-01T09:32:24.229Z,5.80
2022-10-01T09:34:52.217Z,5.50
2022-10-01T09:37:21.738Z,5.20
2022-10-01T09:40:12.375Z,5.50
2022-10-01T09:42:39.237Z,5.60
2022-10-01T09:45:08.076Z,5.50
2022-10-01T09:47:34.806Z,5.70
2022-10-01T09:50:18.913Z,5.10
2022-10-01T09:52:56.265Z,5.10
2022-10-01T09:55:58.117Z,4.80
2022-10-01T09:58:28.567Z,4.80
2022-10-01T10:00:56.282Z,5.10
2022-10-01T10:03:31.496Z,4.80
2022-10-01T10:05:59.496Z,4.40
2022-10-01T10:11:42.371Z,5.00
2022-10-01T10:14:19.491Z,4.50
2022-10-01T10:16:47.956Z,4.40
2022-10-01T10:19:24.191Z,4.40
2022-10-01T10:21:57.387Z,4.70
2022-10-01T10:24:52.283Z,4.30
2022-10-01T10:28:10.740Z,4.50
2022-10-01T10:30:42.257Z,4.40
2022-10-01T10:33:14.201Z,4.60
2022-10-01T10:36:35.569Z,4.10
2022-10-01T10:39:05.732Z,4.40
2022-10-01T10:44:07.275Z,4.40
2022-10-01T10:46:46.462Z,4.50
2022-10-01T10:49:21.063Z,3.90
2022-10-01T10:51:53.655Z,4.30
2022-10-01T10:54:30.899Z,3.80
2022-10-01T10:57:22.946Z,4.40
2022-10-01T11:00:13.060Z,4.40
2022-10-01T11:02:48.915Z,4.40
2022-10-01T11:05:25.490Z,3.90
2022-10-01T11:07:59.987Z,4.10
2022-10-01T11:10:38.924Z,4.00
2022-10-01T11:13:08.708Z,4.20
2022-10-01T11:16:08.232Z,3.80
2022-10-01T11:19:12.421Z,4.50
2022-10-01T11:21:47.295Z,3.50
2022-10-01T11:25:08.353Z,4.20
2022-10-01T11:27:51.889Z,4.90
2022-10-01T11:30:25.956Z,4.00
2022-10-01T11:33:22.745Z,4.20
2022-10-01T11:35:58.408Z,3.70
2022-10-01T11:38:30.853Z,3.60
2022-10-01T11:41:07.911Z,4.00
2022-10-01T11:43:43.737Z,3.70
2022-10-01T11:46:21.279Z,3.70
2022-10-01T11:48:56.746Z,3.90
2022-10-01T11:51:29.478Z,3.90
2022-10-01T11:54:03.454Z,3.60
2022-10-01T11:56:54.132Z,3.60
2022-10-01T11:59:25.963Z,3.80
2022-10-01T12:02:18.598Z,3.40
2022-10-01T12:05:16.600Z,3.50
2022-10-01T12:07:43.498Z,3.20
2022-10-01T12:10:28.751Z,3.30
2022-10-01T12:13:15.352Z,3.20
2022-10-01T12:15:46.863Z,3.40
2022-10-01T12:26:19.131Z,3.50
2022-10-01T12:29:18.357Z,3.40
2022-10-01T12:33:25.035Z,3.20
2022-10-01T12:37:14.662Z,2.60
2022-10-01T12:39:59.628Z,3.20
2022-10-01T12:43:06.092Z,3.10
2022-10-01T12:45:58.760Z,3.10
2022-10-01T12:48:48.216Z,3.00
2022-10-01T12:51:17.359Z,3.20
2022-10-01T12:53:53.864Z,3.40
2022-10-01T12:56:33.117Z,3.10
2022-10-01T12:59:21.611Z,3.20
2022-10-01T13:02:43.522Z,3.20
2022-10-01T13:34:20.645Z,3.20
2022-10-01T13:36:52.912Z,3.30
2022-10-01T13:39:39.439Z,3.30
2022-10-01T13:42:16.115Z,3.90
2022-10-01T13:44:53.195Z,3.60
2022-10-01T13:47:22.301Z,3.60
2022-10-01T13:50:52.966Z,3.60
2022-10-01T13:53:24.340Z,4.50
2022-10-01T13:56:02.265Z,4.10
2022-10-01T13:58:43.056Z,3.50
2022-10-01T14:01:19.964Z,4.30
2022-10-01T14:03:55.355Z,3.80
2022-10-01T14:06:53.880Z,3.90
2022-10-01T14:09:42.207Z,4.10
2022-10-01T14:13:00.808Z,4.50
2022-10-01T14:15:58.684Z,4.10
2022-10-01T14:18:41.353Z,3.90
2022-10-01T14:21:35.887Z,4.00
2022-10-01T14:24:28.673Z,4.30
2022-10-01T14:27:07.269Z,4.10
2022-10-01T14:29:49.070Z,4.10
2022-10-01T14:32:40.714Z,4.10
2022-10-01T14:35:30.877Z,3.60
2022-10-01T14:38:03.628Z,3.90
2022-10-01T14:40:42.322Z,4.20
2022-10-01T14:43:17.886Z,3.90
2022-10-01T14:46:02.311Z,3.50
2022-10-01T14:48:34.140Z,3.00
2022-10-01T14:51:05.670Z,3.40
2022-10-01T14:53:37.827Z,3.40
2022-10-01T14:56:08.907Z,3.60
2022-10-01T14:58:50.747Z,3.60
2022-10-01T15:01:34.850Z,3.40
2022-10-01T15:04:01.920Z,3.10
2022-10-01T15:06:40.910Z,3.40
2022-10-01T15:09:14.369Z,3.70
2022-10-01T15:11:44.684Z,3.20
2022-10-01T15:14:55.615Z,4.00
2022-10-01T15:17:26.943Z,2.90
2022-10-01T15:19:57.970Z,2.70
2022-10-01T15:22:32.036Z,3.40
2022-10-01T15:25:20.415Z,6.50
2022-10-01T15:27:48.549Z,6.90
2022-10-01T15:30:40.773Z,6.60
2022-10-01T15:37:07.954Z,3.60
2022-10-01T15:39:40.322Z,5.10
2022-10-01T15:42:35.710Z,4.50
2022-10-01T15:45:53.384Z,3.70
2022-10-01T15:48:31.924Z,3.80
2022-10-01T15:51:05.226Z,3.40
2022-10-01T15:53:33.557Z,4.80
2022-10-01T15:56:10.238Z,5.10
2022-10-01T15:58:44.300Z,5.50
2022-10-01T16:01:30.158Z,3.40
2022-10-01T16:04:05.887Z,3.10
2022-10-01T16:06:43.065Z,3.10
2022-10-01T16:09:16.063Z,3.50
2022-10-01T16:11:59.095Z,3.50
2022-10-01T16:14:58.988Z,3.40
2022-10-01T16:17:36.646Z,4.50
2022-10-01T16:20:15.624Z,3.70
2022-10-01T16:22:43.084Z,3.60
2022-10-01T16:25:24.937Z,4.00
2022-10-01T16:28:00.333Z,5.40
2022-10-01T16:30:29.186Z,4.70
2022-10-01T16:33:01.893Z,6.20
2022-10-01T16:35:35.116Z,6.20
2022-10-01T16:38:07.710Z,4.00
2022-10-01T16:40:39.468Z,5.40
2022-10-01T16:43:08.206Z,5.00
2022-10-01T16:45:37.698Z,4.20
2022-10-01T16:48:16.160Z,5.20
2022-10-01T16:50:45.847Z,4.90
2022-10-01T16:55:42.381Z,7.40
2022-10-01T16:58:09.699Z,4.90
2022-10-01T17:00:39.248Z,5.80
2022-10-01T17:05:37.044Z,3.90
2022-10-01T17:08:10.882Z,4.70
2022-10-01T17:10:56.670Z,3.80
2022-10-01T17:13:25.167Z,4.40
2022-10-01T17:15:52.606Z,4.30
2022-10-01T17:18:19.777Z,4.50
2022-10-01T17:20:46.633Z,4.40
2022-10-01T17:23:16.137Z,7.20
2022-10-01T17:25:43.819Z,5.80
2022-10-01T17:28:13.887Z,9.60
2022-10-01T17:30:48.269Z,4.20
2022-10-01T17:33:18.663Z,5.70
2022-10-01T17:35:51.033Z,5.80
2022-10-01T17:38:18.729Z,4.10
2022-10-01T17:40:45.602Z,3.20
2022-10-01T17:43:14.551Z,3.30
2022-10-01T17:45:51.892Z,2.70
2022-10-01T17:48:21.701Z,2.50
2022-10-01T17:51:01.722Z,4.90
2022-10-01T17:53:34.900Z,3.90
2022-10-01T17:56:07.577Z,3.10
2022-10-01T17:58:34.743Z,3.60
2022-10-01T18:01:02.157Z,2.70
2022-10-01T18:03:29.161Z,2.90
2022-10-01T18:06:02.980Z,2.90
2022-10-01T18:08:54.245Z,2.90
2022-10-01T18:11:24.360Z,3.00
2022-10-01T18:13:52.033Z,2.60
2022-10-01T18:16:19.752Z,2.60
2022-10-01T18:21:34.334Z,2.40
2022-10-01T18:24:04.559Z,3.00
2022-10-01T18:26:32.682Z,2.90
2022-10-01T18:29:05.206Z,2.80
2022-10-01T19:15:36.671Z,7.60
2022-10-01T19:42:50.994Z,4.90
2022-10-01T20:25:43.678Z,4.90
2022-10-01T21:11:40.767Z,4.10
2022-10-01T21:14:19.819Z,4.60
2022-10-01T21:20:24.173Z,4.30
2022-10-01T21:23:26.360Z,4.50
2022-10-01T21:29:49.339Z,4.00
2022-10-01T21:36:16.878Z,3.60
2022-10-01T21:43:03.751Z,4.10
2022-10-01T21:45:45.330Z,4.30
2022-10-01T21:48:44.710Z,4.00
2022-10-01T21:51:18.929Z,4.10
2022-10-01T21:54:09.723Z,4.40
2022-10-01T21:56:45.633Z,4.30
2022-10-01T21:59:21.502Z,3.90
2022-10-01T22:02:09.995Z,3.70
2022-10-01T22:04:54.874Z,3.60
2022-10-01T22:07:41.275Z,4.20
2022-10-01T22:10:38.113Z,4.00
2022-10-01T22:13:20.080Z,4.10
2022-10-01T22:15:52.421Z,3.80
2022-10-01T22:18:33.346Z,3.80
2022-10-01T22:21:06.622Z,3.80
2022-10-01T22:23:37.498Z,3.80
2022-10-01T22:26:13.726Z,3.80
2022-10-01T22:28:44.468Z,3.30
2022-10-01T22:31:16.393Z,3.70
2022-10-01T22:34:10.164Z,3.60
2022-10-01T22:36:52.612Z,3.30
2022-10-01T22:39:29.165Z,3.40
2022-10-01T22:41:59.644Z,3.20
2022-10-01T22:44:28.040Z,3.60
2022-10-01T22:47:00.591Z,3.40
2022-10-01T22:49:45.351Z,3.40
2022-10-01T22:52:50.847Z,3.30
2022-10-01T22:55:20.925Z,3.20
2022-10-01T22:58:10.974Z,3.30
2022-10-01T23:01:04.235Z,3.30
2022-10-01T23:03:52.203Z,3.40
2022-10-01T23:06:18.973Z,3.20
2022-10-01T23:09:04.077Z,2.80
2022-10-01T23:11:48.894Z,2.90
2022-10-01T23:14:38.565Z,2.90
2022-10-01T23:17:13.353Z,2.70
2022-10-01T23:20:08.812Z,2.90
2022-10-01T23:22:47.329Z,3.20
2022-10-01T23:25:41.038Z,2.80
2022-10-01T23:28:30.056Z,2.60
2022-10-01T23:31:22.151Z,3.20
2022-10-01T23:34:10.336Z,2.60
2022-10-01T23:36:57.331Z,2.40
2022-10-01T23:39:40.047Z,2.60
2022-10-01T23:43:06.221Z,2.70
2022-10-01T23:45:44.430Z,2.70
2022-10-01T23:48:21.549Z,2.90
2022-10-01T23:51:02.075Z,2.30
2022-10-01T23:53:44.973Z,2.60
2022-10-01T23:56:34.095Z,2.50
2022-10-01T23:59:14.747Z,2.20
